Leuchars, United Kingdom
Current Conditions -  °F | °C
As of 1:50 PM on Sunday 21 Dec 2014 (Local Time) from EGQL Reporting Station
Broken Clouds Broken Clouds  
Wind Chill: 11°   Ceiling: 12000
Heat Index: 11°   Visibility: 6mi
Dew Point:   Wind: 25mph
Humidity: 88%   Direction: 250°WSW
Pressure: 29.65"   Gusts: NA
Location:  56.38°N, 2.89°W
Report Text: EGQL 211350Z 25022KT 9999 FEW015 SCT027 BKN120 11/09 Q1004 BLU
Loading
Personal Weather Stations






























Interactive Weather Map New forecast layout! Learn more

10-Day Weather Forecast

Advertisements
Track Severe Weather on mobile